createdAt,value
2023-07-09T00:01:51.090Z,25.90
2023-07-09T00:04:18.895Z,25.90
2023-07-09T00:06:46.174Z,25.90
2023-07-09T00:09:14.429Z,25.90
2023-07-09T00:11:42.174Z,25.90
2023-07-09T00:14:10.155Z,25.90
2023-07-09T00:16:38.152Z,25.90
2023-07-09T00:19:06.112Z,25.90
2023-07-09T00:21:35.116Z,25.90
2023-07-09T00:24:05.912Z,25.90
2023-07-09T00:26:33.467Z,25.90
2023-07-09T00:29:01.119Z,25.90
2023-07-09T00:31:28.209Z,25.90
2023-07-09T00:33:58.229Z,25.90
2023-07-09T00:36:29.792Z,25.90
2023-07-09T00:39:00.393Z,25.90
2023-07-09T00:41:29.649Z,25.90
2023-07-09T00:43:56.554Z,25.80
2023-07-09T00:46:43.436Z,25.80
2023-07-09T00:49:11.775Z,25.80
2023-07-09T00:51:43.119Z,25.80
2023-07-09T00:54:20.181Z,25.80
2023-07-09T00:56:47.841Z,25.80
2023-07-09T00:59:17.050Z,25.80
2023-07-09T01:01:44.196Z,25.70
2023-07-09T01:04:11.526Z,25.80
2023-07-09T01:06:44.565Z,25.80
2023-07-09T01:09:11.871Z,25.80
2023-07-09T01:11:39.987Z,25.80
2023-07-09T01:14:08.512Z,25.70
2023-07-09T01:16:37.296Z,25.70
2023-07-09T01:19:05.413Z,25.70
2023-07-09T01:21:33.528Z,25.70
2023-07-09T01:24:15.454Z,25.70
2023-07-09T01:26:42.460Z,25.70
2023-07-09T01:29:09.387Z,25.70
2023-07-09T01:31:36.939Z,25.70
2023-07-09T01:34:04.010Z,25.70
2023-07-09T01:36:32.620Z,25.70
2023-07-09T01:38:59.525Z,25.70
2023-07-09T01:41:26.448Z,25.70
2023-07-09T01:43:54.040Z,25.70
2023-07-09T01:46:22.122Z,25.70
2023-07-09T01:48:51.445Z,25.70
2023-07-09T01:51:18.724Z,25.70
2023-07-09T01:53:45.842Z,25.70
2023-07-09T01:56:12.842Z,25.70
2023-07-09T01:58:43.269Z,25.70
2023-07-09T02:01:10.498Z,25.70
2023-07-09T02:03:37.615Z,25.70
2023-07-09T02:06:10.981Z,25.70
2023-07-09T02:08:38.541Z,25.70
2023-07-09T02:11:05.576Z,25.70
2023-07-09T02:13:32.645Z,25.70
2023-07-09T02:15:59.625Z,25.70
2023-07-09T02:18:27.310Z,25.70
2023-07-09T02:20:54.246Z,25.70
2023-07-09T02:23:21.161Z,25.70
2023-07-09T02:25:48.595Z,25.70
2023-07-09T02:28:15.514Z,25.70
2023-07-09T02:30:42.441Z,25.70
2023-07-09T02:33:09.397Z,25.70
2023-07-09T02:35:37.060Z,25.70
2023-07-09T02:38:04.233Z,25.70
2023-07-09T02:40:31.169Z,25.70
2023-07-09T02:42:58.120Z,25.70
2023-07-09T02:45:25.121Z,25.70
2023-07-09T02:47:52.219Z,25.70
2023-07-09T02:50:19.285Z,25.70
2023-07-09T02:52:46.332Z,25.60
2023-07-09T02:55:13.253Z,25.60
2023-07-09T02:57:40.196Z,25.60
2023-07-09T03:00:07.523Z,25.60
2023-07-09T03:02:35.365Z,25.60
2023-07-09T03:05:02.331Z,25.60
2023-07-09T03:07:29.270Z,25.60
2023-07-09T03:09:56.175Z,25.60
2023-07-09T03:12:23.180Z,25.60
2023-07-09T03:14:50.608Z,25.60
2023-07-09T03:17:17.525Z,25.60
2023-07-09T03:19:44.553Z,25.60
2023-07-09T03:22:11.487Z,25.60
2023-07-09T03:24:38.367Z,25.60
2023-07-09T03:27:05.527Z,25.60
2023-07-09T03:29:32.438Z,25.60
2023-07-09T03:31:59.392Z,25.60
2023-07-09T03:34:26.462Z,25.60
2023-07-09T03:36:53.382Z,25.60
2023-07-09T03:39:20.306Z,25.60
2023-07-09T03:41:47.261Z,25.70
2023-07-09T03:44:14.236Z,25.70
2023-07-09T03:46:41.230Z,25.60
2023-07-09T03:49:08.166Z,25.70
2023-07-09T03:51:35.104Z,25.70
2023-07-09T03:54:02.073Z,25.70
2023-07-09T03:56:28.976Z,25.70
2023-07-09T03:58:55.911Z,25.70
2023-07-09T04:01:23.250Z,25.70
2023-07-09T04:03:50.294Z,25.80
2023-07-09T04:06:17.313Z,25.80
2023-07-09T04:08:44.300Z,25.80
2023-07-09T04:11:11.375Z,25.80
2023-07-09T04:13:38.373Z,25.80
2023-07-09T04:16:05.777Z,25.90
2023-07-09T04:18:32.947Z,25.90
2023-07-09T04:20:59.886Z,25.90
2023-07-09T04:23:26.778Z,25.90
2023-07-09T04:25:53.785Z,25.90
2023-07-09T04:28:20.700Z,26.00
2023-07-09T04:30:49.243Z,25.90
2023-07-09T04:33:18.726Z,26.00
2023-07-09T04:35:47.352Z,26.00
2023-07-09T04:38:14.844Z,26.00
2023-07-09T04:40:42.018Z,25.90
2023-07-09T04:43:09.011Z,25.80
2023-07-09T04:45:36.047Z,25.70
2023-07-09T04:48:03.066Z,25.50
2023-07-09T04:50:30.044Z,25.20
2023-07-09T04:52:56.969Z,24.90
2023-07-09T04:55:24.005Z,24.70
2023-07-09T04:57:51.356Z,24.30
2023-07-09T05:00:18.471Z,24.00
2023-07-09T05:02:45.773Z,23.60
2023-07-09T05:05:13.244Z,23.20
2023-07-09T05:07:40.752Z,22.90
2023-07-09T05:10:08.301Z,22.50
2023-07-09T05:12:35.322Z,22.20
2023-07-09T05:15:02.264Z,21.90
2023-07-09T05:17:29.206Z,21.60
2023-07-09T05:19:56.148Z,21.40
2023-07-09T05:22:23.108Z,21.10
2023-07-09T05:24:50.028Z,21.00
2023-07-09T05:27:16.938Z,20.80
2023-07-09T05:29:43.867Z,20.70
2023-07-09T05:32:10.754Z,20.70
2023-07-09T05:34:37.671Z,20.60
2023-07-09T05:37:04.772Z,20.50
2023-07-09T05:39:31.662Z,20.50
2023-07-09T05:41:58.759Z,20.40
2023-07-09T05:44:25.652Z,20.40
2023-07-09T05:46:52.616Z,20.40
2023-07-09T05:49:19.667Z,20.40
2023-07-09T05:51:46.695Z,20.40
2023-07-09T05:54:13.583Z,20.40
2023-07-09T05:56:40.639Z,20.40
2023-07-09T05:59:07.518Z,20.30
2023-07-09T06:01:34.519Z,20.30
2023-07-09T06:04:01.727Z,20.30
2023-07-09T06:06:28.748Z,20.30
2023-07-09T06:08:55.732Z,20.30
2023-07-09T06:11:22.745Z,20.30
2023-07-09T06:13:49.777Z,20.30
2023-07-09T06:16:17.434Z,20.30
2023-07-09T06:18:44.390Z,20.30
2023-07-09T06:21:12.841Z,20.30
2023-07-09T06:23:40.047Z,20.30
2023-07-09T06:26:07.212Z,20.30
2023-07-09T06:28:34.148Z,20.30
2023-07-09T06:31:01.651Z,20.40
2023-07-09T06:33:29.487Z,20.40
2023-07-09T06:35:58.395Z,20.30
2023-07-09T06:38:25.576Z,20.40
2023-07-09T06:40:58.255Z,20.40
2023-07-09T06:43:25.315Z,20.40
2023-07-09T06:45:57.308Z,20.40
2023-07-09T06:48:25.308Z,20.40
2023-07-09T06:50:53.220Z,20.40
2023-07-09T06:53:21.556Z,20.40
2023-07-09T06:55:50.239Z,20.40
2023-07-09T06:58:17.717Z,20.40
2023-07-09T07:00:44.726Z,20.50
2023-07-09T07:03:11.937Z,20.50
2023-07-09T07:05:43.788Z,20.50
2023-07-09T07:08:10.770Z,20.50
2023-07-09T07:10:37.722Z,20.60
2023-07-09T07:13:04.713Z,20.60
2023-07-09T07:15:31.845Z,20.60
2023-07-09T07:17:58.937Z,20.60
2023-07-09T07:20:25.909Z,20.60
2023-07-09T07:22:52.859Z,20.60
2023-07-09T07:25:19.806Z,20.70
2023-07-09T07:27:46.780Z,20.70
2023-07-09T07:30:13.838Z,20.60
2023-07-09T07:32:45.512Z,20.70
2023-07-09T07:35:12.570Z,20.70
2023-07-09T07:37:39.594Z,20.70
2023-07-09T07:40:07.020Z,20.70
2023-07-09T07:42:34.195Z,20.70
2023-07-09T07:45:01.214Z,20.80
2023-07-09T07:47:28.619Z,20.80
2023-07-09T07:49:55.764Z,20.80
2023-07-09T07:52:23.044Z,20.90
2023-07-09T07:54:50.567Z,20.90
2023-07-09T07:57:17.513Z,20.90
2023-07-09T07:59:44.487Z,21.00
2023-07-09T08:02:15.177Z,21.00
2023-07-09T08:04:42.577Z,21.00
2023-07-09T08:07:10.383Z,21.00
2023-07-09T08:09:37.544Z,21.10
2023-07-09T08:12:10.736Z,21.10
2023-07-09T08:14:38.992Z,21.10
2023-07-09T08:17:06.459Z,21.10
2023-07-09T08:19:33.900Z,21.20
2023-07-09T08:22:00.876Z,21.20
2023-07-09T08:24:27.804Z,21.20
2023-07-09T08:26:54.803Z,21.30
2023-07-09T08:29:21.782Z,21.20
2023-07-09T08:31:48.728Z,21.30
2023-07-09T08:34:15.728Z,21.30
2023-07-09T08:36:42.614Z,21.30
2023-07-09T08:39:09.692Z,21.40
2023-07-09T08:41:59.341Z,21.40
2023-07-09T08:44:35.322Z,21.40
2023-07-09T08:47:07.552Z,21.40
2023-07-09T08:49:38.673Z,21.40
2023-07-09T08:52:11.261Z,21.40
2023-07-09T08:54:38.299Z,21.40
2023-07-09T08:57:15.747Z,21.40
2023-07-09T08:59:42.985Z,21.40
2023-07-09T09:02:17.742Z,21.40
2023-07-09T09:04:45.623Z,21.40
2023-07-09T09:07:20.751Z,21.40
2023-07-09T09:09:54.253Z,21.40
2023-07-09T09:12:23.305Z,21.40
2023-07-09T09:14:57.536Z,21.40
2023-07-09T09:17:26.884Z,21.30
2023-07-09T09:19:58.139Z,21.30
2023-07-09T09:22:27.803Z,21.30
2023-07-09T09:25:04.983Z,21.30
2023-07-09T09:27:31.903Z,21.30
2023-07-09T09:29:58.879Z,21.40
2023-07-09T09:32:31.023Z,21.40
2023-07-09T09:34:58.408Z,21.40
2023-07-09T09:37:30.269Z,21.40
2023-07-09T09:40:13.132Z,21.40
2023-07-09T09:42:44.287Z,21.30
2023-07-09T09:45:14.178Z,21.30
2023-07-09T09:47:41.210Z,21.30
2023-07-09T09:50:10.930Z,21.30
2023-07-09T09:52:38.598Z,21.30
2023-07-09T09:55:25.085Z,21.30
2023-07-09T09:57:53.110Z,21.30
2023-07-09T10:00:22.799Z,21.30
2023-07-09T10:02:50.141Z,21.30
2023-07-09T10:05:17.583Z,21.40
2023-07-09T10:07:46.829Z,21.30
2023-07-09T10:10:21.485Z,21.30
2023-07-09T10:12:53.091Z,21.40
2023-07-09T10:15:35.768Z,21.30
2023-07-09T10:18:23.259Z,21.30
2023-07-09T10:21:00.929Z,21.30
2023-07-09T10:23:30.836Z,21.30
2023-07-09T10:26:12.470Z,21.30
2023-07-09T10:29:00.094Z,21.30
2023-07-09T10:31:35.156Z,21.30
2023-07-09T10:34:22.053Z,21.30
2023-07-09T10:36:59.116Z,21.30
2023-07-09T10:39:33.623Z,21.20
2023-07-09T10:42:01.207Z,21.20
2023-07-09T10:44:34.576Z,21.10
2023-07-09T10:47:08.342Z,21.20
2023-07-09T10:49:37.840Z,21.10
2023-07-09T10:52:12.253Z,21.00
2023-07-09T10:54:42.758Z,21.00
2023-07-09T10:57:13.323Z,20.90
2023-07-09T10:59:41.498Z,20.90
2023-07-09T11:02:24.956Z,20.90
2023-07-09T11:05:00.017Z,20.90
2023-07-09T11:07:30.865Z,20.80
2023-07-09T11:09:59.187Z,20.80
2023-07-09T11:12:30.860Z,20.80
2023-07-09T11:15:02.532Z,20.80
2023-07-09T11:17:30.545Z,20.80
2023-07-09T11:20:01.298Z,20.80
2023-07-09T11:22:37.164Z,20.80
2023-07-09T11:25:14.705Z,20.80
2023-07-09T11:27:51.241Z,20.80
2023-07-09T11:30:21.794Z,20.70
2023-07-09T11:32:49.500Z,20.70
2023-07-09T11:35:24.242Z,20.70
2023-07-09T11:37:51.366Z,20.70
2023-07-09T11:40:20.809Z,20.60
2023-07-09T11:42:49.558Z,20.60
2023-07-09T11:45:18.954Z,20.60
2023-07-09T11:47:47.318Z,20.60
2023-07-09T11:50:23.344Z,20.70
2023-07-09T11:52:59.235Z,20.70
2023-07-09T11:55:30.515Z,20.70
2023-07-09T11:57:58.569Z,20.70
2023-07-09T12:00:26.659Z,20.70
2023-07-09T12:02:53.718Z,20.70
2023-07-09T12:05:22.476Z,20.70
2023-07-09T12:07:49.775Z,20.80
2023-07-09T12:10:22.173Z,20.80
2023-07-09T12:12:49.313Z,20.90
2023-07-09T12:15:20.912Z,20.90
2023-07-09T12:17:58.735Z,20.90
2023-07-09T12:20:26.308Z,21.00
2023-07-09T12:22:53.283Z,21.00
2023-07-09T12:25:23.398Z,21.00
2023-07-09T12:27:50.716Z,21.10
2023-07-09T12:30:17.935Z,21.10
2023-07-09T12:32:46.814Z,21.00
2023-07-09T12:35:15.531Z,21.10
2023-07-09T12:37:43.588Z,21.10
2023-07-09T12:40:14.618Z,21.10
2023-07-09T12:42:42.905Z,21.10
2023-07-09T12:45:15.449Z,21.20
2023-07-09T12:47:42.488Z,21.10
2023-07-09T12:50:30.517Z,21.10
2023-07-09T12:52:58.677Z,21.30
2023-07-09T12:55:26.813Z,21.20
2023-07-09T12:57:58.020Z,21.20
2023-07-09T13:00:30.113Z,21.20
2023-07-09T13:02:59.115Z,21.30
2023-07-09T13:05:27.282Z,21.30
2023-07-09T13:07:55.404Z,21.30
2023-07-09T13:10:27.897Z,21.30
2023-07-09T13:13:05.344Z,21.30
2023-07-09T13:15:39.490Z,21.40
2023-07-09T13:18:08.313Z,21.40
2023-07-09T13:20:37.971Z,21.40
2023-07-09T13:23:09.616Z,21.40
2023-07-09T13:25:46.607Z,21.40
2023-07-09T13:28:23.513Z,21.40
2023-07-09T13:30:52.266Z,21.40
2023-07-09T13:33:19.275Z,21.40
2023-07-09T13:35:46.844Z,21.40
2023-07-09T13:38:14.794Z,21.40
2023-07-09T13:40:42.373Z,21.30
2023-07-09T13:43:12.777Z,21.30
2023-07-09T13:45:41.047Z,21.30
2023-07-09T13:48:14.593Z,21.30
2023-07-09T13:50:41.671Z,21.40
2023-07-09T13:53:14.768Z,21.40
2023-07-09T13:55:42.942Z,21.40
2023-07-09T13:58:11.144Z,21.40
2023-07-09T14:00:38.325Z,21.40
2023-07-09T14:03:09.346Z,21.40
2023-07-09T14:05:36.418Z,21.60
2023-07-09T14:08:03.388Z,21.80
2023-07-09T14:10:30.488Z,22.10
2023-07-09T14:12:58.051Z,22.40
2023-07-09T14:15:24.978Z,22.70
2023-07-09T14:17:52.877Z,23.00
2023-07-09T14:20:25.336Z,23.20
2023-07-09T14:22:52.325Z,23.40
2023-07-09T14:25:22.099Z,23.70
2023-07-09T14:27:50.069Z,23.80
2023-07-09T14:30:19.005Z,24.00
2023-07-09T14:32:47.382Z,24.20
2023-07-09T14:35:19.188Z,24.30
2023-07-09T14:37:46.850Z,24.50
2023-07-09T14:40:14.168Z,24.60
2023-07-09T14:42:42.079Z,24.70
2023-07-09T14:45:24.756Z,24.80
2023-07-09T14:47:52.526Z,24.90
2023-07-09T14:50:19.801Z,25.10
2023-07-09T14:52:47.730Z,25.20
2023-07-09T14:55:18.946Z,25.30
2023-07-09T14:57:46.381Z,25.40
2023-07-09T15:00:14.206Z,25.50
2023-07-09T15:02:42.463Z,25.70
2023-07-09T15:05:18.211Z,25.70
2023-07-09T15:07:46.392Z,25.80
2023-07-09T15:10:14.184Z,26.00
2023-07-09T15:12:41.843Z,26.10
2023-07-09T15:15:27.205Z,26.10
2023-07-09T15:17:54.348Z,26.30
2023-07-09T15:20:23.884Z,26.30
2023-07-09T15:22:51.582Z,26.40
2023-07-09T15:25:29.015Z,26.50
2023-07-09T15:27:57.594Z,26.60
2023-07-09T15:30:26.584Z,26.80
2023-07-09T15:32:57.252Z,26.80
2023-07-09T15:35:24.673Z,26.90
2023-07-09T15:37:51.593Z,27.00
2023-07-09T15:40:33.491Z,27.10
2023-07-09T15:43:04.266Z,27.20
2023-07-09T15:45:31.170Z,27.30
2023-07-09T15:47:58.275Z,27.40
2023-07-09T15:50:27.773Z,27.40
2023-07-09T15:52:55.071Z,27.50
2023-07-09T15:55:23.384Z,27.60
2023-07-09T15:57:51.571Z,27.70
2023-07-09T16:00:20.568Z,27.80
2023-07-09T16:02:48.186Z,27.90
2023-07-09T16:05:25.979Z,28.00
2023-07-09T16:07:54.815Z,28.00
2023-07-09T16:10:23.156Z,28.10
2023-07-09T16:12:51.272Z,28.20
2023-07-09T16:15:19.267Z,28.20
2023-07-09T16:17:47.024Z,28.30
2023-07-09T16:20:15.171Z,28.30
2023-07-09T16:22:42.687Z,28.40
2023-07-09T16:25:13.569Z,28.50
2023-07-09T16:27:40.509Z,28.50
2023-07-09T16:30:13.123Z,28.60
2023-07-09T16:32:40.198Z,28.70
2023-07-09T16:35:07.346Z,28.70
2023-07-09T16:37:34.370Z,28.80
2023-07-09T16:40:02.144Z,28.90
2023-07-09T16:42:29.138Z,28.90
2023-07-09T16:44:56.138Z,29.00
2023-07-09T16:47:23.158Z,29.00
2023-07-09T16:49:50.421Z,29.10
2023-07-09T16:52:20.030Z,29.10
2023-07-09T16:54:47.361Z,29.10
2023-07-09T16:57:18.084Z,29.20
2023-07-09T16:59:45.515Z,29.20
2023-07-09T17:02:27.070Z,29.20
2023-07-09T17:04:54.535Z,29.30
2023-07-09T17:07:21.476Z,29.40
2023-07-09T17:09:48.847Z,29.40
2023-07-09T17:12:16.868Z,29.40
2023-07-09T17:14:43.793Z,29.40
2023-07-09T17:17:14.904Z,29.40
2023-07-09T17:19:42.024Z,29.50
2023-07-09T17:22:24.717Z,29.50
2023-07-09T17:24:52.268Z,29.50
2023-07-09T17:27:19.230Z,29.50
2023-07-09T17:29:46.358Z,29.50
2023-07-09T17:32:15.754Z,29.50
2023-07-09T17:34:42.869Z,29.60
2023-07-09T17:37:14.067Z,29.60
2023-07-09T17:39:40.970Z,29.60
2023-07-09T17:42:15.496Z,29.50
2023-07-09T17:44:44.575Z,29.50
2023-07-09T17:47:17.461Z,29.50
2023-07-09T17:49:45.273Z,29.50
2023-07-09T17:52:19.218Z,29.50
2023-07-09T17:54:46.231Z,29.40
2023-07-09T17:57:15.650Z,29.40
2023-07-09T17:59:43.273Z,29.40
2023-07-09T18:02:18.009Z,29.30
2023-07-09T18:04:44.930Z,29.30
2023-07-09T18:07:18.792Z,29.20
2023-07-09T18:09:46.365Z,29.10
2023-07-09T18:12:14.233Z,29.10
2023-07-09T18:14:43.676Z,29.00
2023-07-09T18:17:18.757Z,29.00
2023-07-09T18:19:45.816Z,28.90
2023-07-09T18:22:15.280Z,28.80
2023-07-09T18:24:43.895Z,28.70
2023-07-09T18:27:14.915Z,28.70
2023-07-09T18:29:42.364Z,28.60
2023-07-09T18:32:15.418Z,28.60
2023-07-09T18:34:42.296Z,28.50
2023-07-09T18:37:09.220Z,28.50
2023-07-09T18:39:36.145Z,28.40
2023-07-09T18:42:04.520Z,28.40
2023-07-09T18:44:33.229Z,28.40
2023-07-09T18:47:00.297Z,28.30
2023-07-09T18:49:28.424Z,28.30
2023-07-09T18:51:55.383Z,28.30
2023-07-09T18:54:22.970Z,28.30
2023-07-09T18:56:50.127Z,28.20
2023-07-09T18:59:18.934Z,28.10
2023-07-09T19:01:46.569Z,28.10
2023-07-09T19:04:17.981Z,28.10
2023-07-09T19:06:45.241Z,28.10
2023-07-09T19:09:16.476Z,28.00
2023-07-09T19:11:43.416Z,28.00
2023-07-09T19:14:10.691Z,28.00
2023-07-09T19:16:37.990Z,27.90
2023-07-09T19:19:06.407Z,27.90
2023-07-09T19:21:33.352Z,27.90
2023-07-09T19:24:01.017Z,27.90
2023-07-09T19:26:28.068Z,27.80
2023-07-09T19:28:55.058Z,27.80
2023-07-09T19:31:22.183Z,27.80
2023-07-09T19:33:49.212Z,27.80
2023-07-09T19:36:21.294Z,27.70
2023-07-09T19:38:48.262Z,27.70
2023-07-09T19:41:15.822Z,27.70
2023-07-09T19:43:42.738Z,27.70
2023-07-09T19:46:16.852Z,27.60
2023-07-09T19:48:43.820Z,27.60
2023-07-09T19:51:10.754Z,27.60
2023-07-09T19:53:37.692Z,27.60
2023-07-09T19:56:05.068Z,27.50
2023-07-09T19:58:32.273Z,27.50
2023-07-09T20:00:59.638Z,27.40
2023-07-09T20:03:28.281Z,27.40
2023-07-09T20:05:56.278Z,27.40
2023-07-09T20:08:24.351Z,27.30
2023-07-09T20:10:52.034Z,27.30
2023-07-09T20:13:25.016Z,27.20
2023-07-09T20:15:52.132Z,27.20
2023-07-09T20:18:20.021Z,27.20
2023-07-09T20:20:51.593Z,27.10
2023-07-09T20:23:18.579Z,27.10
2023-07-09T20:25:46.821Z,27.00
2023-07-09T20:28:25.666Z,27.00
2023-07-09T20:30:53.266Z,27.00
2023-07-09T20:33:20.308Z,27.00
2023-07-09T20:35:47.670Z,26.90
2023-07-09T20:38:16.083Z,26.90
2023-07-09T20:40:44.350Z,26.90
2023-07-09T20:43:18.240Z,26.80
2023-07-09T20:45:45.778Z,26.80
2023-07-09T20:48:12.873Z,26.80
2023-07-09T20:50:42.872Z,26.80
2023-07-09T20:53:14.355Z,26.80
2023-07-09T20:55:43.275Z,26.80
2023-07-09T20:58:22.014Z,26.80
2023-07-09T21:00:49.749Z,26.70
2023-07-09T21:03:18.295Z,26.70
2023-07-09T21:05:46.871Z,26.70
2023-07-09T21:08:15.508Z,26.70
2023-07-09T21:10:42.823Z,26.70
2023-07-09T21:13:11.938Z,26.70
2023-07-09T21:15:39.138Z,26.60
2023-07-09T21:18:07.432Z,26.70
2023-07-09T21:20:34.380Z,26.70
2023-07-09T21:23:01.737Z,26.60
2023-07-09T21:25:28.608Z,26.60
2023-07-09T21:27:55.607Z,26.60
2023-07-09T21:30:23.016Z,26.60
2023-07-09T21:32:50.563Z,26.60
2023-07-09T21:35:19.644Z,26.60
2023-07-09T21:37:46.897Z,26.50
2023-07-09T21:40:31.443Z,26.50
2023-07-09T21:43:00.187Z,26.50
2023-07-09T21:45:31.246Z,26.50
2023-07-09T21:47:59.573Z,26.50
2023-07-09T21:50:26.597Z,26.50
2023-07-09T21:52:53.572Z,26.50
2023-07-09T21:55:22.369Z,26.50
2023-07-09T21:57:49.694Z,26.40
2023-07-09T22:00:20.772Z,26.40
2023-07-09T22:02:49.213Z,26.40
2023-07-09T22:05:22.445Z,26.40
2023-07-09T22:07:50.065Z,26.40
2023-07-09T22:10:18.352Z,26.40
2023-07-09T22:12:49.073Z,26.30
2023-07-09T22:15:18.733Z,26.30
2023-07-09T22:17:45.751Z,26.30
2023-07-09T22:20:12.921Z,26.30
2023-07-09T22:22:40.284Z,26.30
2023-07-09T22:25:13.801Z,26.30
2023-07-09T22:27:40.818Z,26.30
2023-07-09T22:30:08.090Z,26.20
2023-07-09T22:32:35.247Z,26.30
2023-07-09T22:35:03.262Z,26.20
2023-07-09T22:37:31.334Z,26.20
2023-07-09T22:39:58.279Z,26.20
2023-07-09T22:42:25.208Z,26.20
2023-07-09T22:44:52.122Z,26.20
2023-07-09T22:47:20.469Z,26.20
2023-07-09T22:49:47.931Z,26.20
2023-07-09T22:52:16.546Z,26.20
2023-07-09T22:54:44.342Z,26.20
2023-07-09T22:57:11.219Z,26.20
2023-07-09T22:59:38.143Z,26.10
2023-07-09T23:02:09.751Z,26.10
2023-07-09T23:04:36.850Z,26.10
2023-07-09T23:07:10.248Z,26.10
2023-07-09T23:09:37.200Z,26.10
2023-07-09T23:12:04.602Z,26.10
2023-07-09T23:14:32.795Z,26.10
2023-07-09T23:17:00.105Z,26.10
2023-07-09T23:19:29.143Z,26.10
2023-07-09T23:21:56.943Z,26.10
2023-07-09T23:24:23.874Z,26.10
2023-07-09T23:26:52.108Z,26.10
2023-07-09T23:29:19.678Z,26.10
2023-07-09T23:31:47.732Z,26.10
2023-07-09T23:34:16.701Z,26.10
2023-07-09T23:36:46.791Z,26.10
2023-07-09T23:39:14.219Z,26.10
2023-07-09T23:41:43.848Z,26.10
2023-07-09T23:44:15.417Z,26.10
2023-07-09T23:46:42.545Z,26.10
2023-07-09T23:49:26.472Z,26.10
2023-07-09T23:51:54.268Z,26.10
2023-07-09T23:54:21.244Z,26.10
2023-07-09T23:56:49.938Z,26.10
2023-07-09T23:59:19.139Z,26.00
